Flora, IL (62839)

10:26 AM CDT on July 27, 2016 (GMT -0500)
E. Flora | | Change Station

Elev 449 ft 38.67 °N, 88.42 °W | Updated 26 minutes ago

Scattered Clouds
Scattered Clouds
82.7 °F
Feels Like 92 °F
N
1.0
Wind Variable Wind from ENE
Gusts 3.0 mph

Today
High -- | Low -- °F
--% Chance of Precip.
Yesterday
High -- | Low -- °F
Precip. -- in
Pressure 30.02 in
Visibility 10.0 miles
Clouds Scattered Clouds 1100 ft
Scattered Clouds 11000 ft
Heat Index 92 °F
Dew Point 78 °F
Humidity 86%
Rainfall 0.00 in
Snow Depth Not available.
5:51 AM 8:08 PM
Last Quarter, 42% visible
METAR KFOA 271515Z AUTO 00000KT 10SM SCT011 SCT110 28/25 A3002 RMK AO2 T02810249
Pressure 30.02 in
Visibility 10.0 miles
Clouds Scattered Clouds 1100 ft
Scattered Clouds 11000 ft
Heat Index 92 °F
Dew Point 78 °F
Humidity 86%
Rainfall 0.00 in
Snow Depth Not available.
5:51 AM 8:08 PM
Last Quarter, 42% visible
METAR KFOA 271515Z AUTO 00000KT 10SM SCT011 SCT110 28/25 A3002 RMK AO2 T02810249

10-Day Weather Forecast

Almanac

Astronomy

Jul. 27, 2016 Rise Set
Actual Time
Civil Twilight
Nautical Twilight
Astronomical Twilight
Moon
Length of Visible Light
Length of Day
Tomorrow will be .
, % of the Moon is Illuminated

Today's Extremes

State Highs State Lows

Community

WunderPhotos

Upload Photos

1,927,859 photos uploaded!

WunderBlog® & News

Nearby

Air Quality

  Air Quality AQ Index Pollutant
Not available.

Snow Depth

Station Depth Elevation

Earthquake Activity

City Distance Mag. Time & Date
Minimum magnitude displayed is 2.5.

Coastal Water Temperatures

Place Temperature

Stations

Nearby Weather Stations

Station Location Temp. Windchill Dew Point Humidity Wind Precip. Elev Updated Type
                   

Watches & Warnings

There are currently no watches in effect.